sensor_id;sensor_type;location;lat;lon;timestamp;pressure;altitude;pressure_sealevel;temperature;humidity
30935;BME280;51033;42.648;23.292;2023-07-20T00:02:14;93609.44;;;21.89;48.60
30935;BME280;51033;42.648;23.292;2023-07-20T00:04:40;93614.47;;;21.94;48.47
30935;BME280;51033;42.648;23.292;2023-07-20T00:07:05;93603.25;;;21.92;49.47
30935;BME280;51033;42.648;23.292;2023-07-20T00:09:31;93593.59;;;21.95;49.07
30935;BME280;51033;42.648;23.292;2023-07-20T00:11:56;93597.47;;;21.90;48.98
30935;BME280;51033;42.648;23.292;2023-07-20T00:14:22;93598.22;;;21.91;48.51
30935;BME280;51033;42.648;23.292;2023-07-20T00:16:50;93580.06;;;21.84;48.25
30935;BME280;51033;42.648;23.292;2023-07-20T00:19:20;93588.19;;;21.87;48.25
30935;BME280;51033;42.648;23.292;2023-07-20T00:21:46;93612.16;;;21.89;48.65
30935;BME280;51033;42.648;23.292;2023-07-20T00:24:11;93601.34;;;21.89;48.50
30935;BME280;51033;42.648;23.292;2023-07-20T00:26:36;93616.81;;;21.85;48.46
30935;BME280;51033;42.648;23.292;2023-07-20T00:29:05;93630.75;;;21.80;48.94
30935;BME280;51033;42.648;23.292;2023-07-20T00:31:30;93626.09;;;21.84;48.71
30935;BME280;51033;42.648;23.292;2023-07-20T00:33:56;93606.75;;;21.78;48.39
30935;BME280;51033;42.648;23.292;2023-07-20T00:36:21;93622.59;;;21.87;48.46
30935;BME280;51033;42.648;23.292;2023-07-20T00:38:47;93614.50;;;21.80;48.91
30935;BME280;51033;42.648;23.292;2023-07-20T00:41:12;93625.31;;;21.87;48.31
30935;BME280;51033;42.648;23.292;2023-07-20T00:43:38;93607.16;;;21.70;49.44
30935;BME280;51033;42.648;23.292;2023-07-20T00:46:04;93599.78;;;21.77;49.52
30935;BME280;51033;42.648;23.292;2023-07-20T00:48:30;93599.81;;;21.74;50.55
30935;BME280;51033;42.648;23.292;2023-07-20T00:50:58;93584.34;;;21.60;50.16
30935;BME280;51033;42.648;23.292;2023-07-20T00:53:23;93594.41;;;21.60;51.05
30935;BME280;51033;42.648;23.292;2023-07-20T00:55:49;93600.19;;;21.62;50.68
30935;BME280;51033;42.648;23.292;2023-07-20T00:58:14;93597.84;;;21.50;51.48
30935;BME280;51033;42.648;23.292;2023-07-20T01:00:40;93595.13;;;21.53;50.71
30935;BME280;51033;42.648;23.292;2023-07-20T01:03:05;93606.75;;;21.54;51.23
30935;BME280;51033;42.648;23.292;2023-07-20T01:06:06;93592.09;;;21.55;50.31
30935;BME280;51033;42.648;23.292;2023-07-20T01:11:16;93595.94;;;21.50;49.80
30935;BME280;51033;42.648;23.292;2023-07-20T01:13:44;93604.03;;;21.39;50.71
30935;BME280;51033;42.648;23.292;2023-07-20T01:16:09;93604.41;;;21.38;51.26
30935;BME280;51033;42.648;23.292;2023-07-20T01:18:35;93591.69;;;21.31;51.03
30935;BME280;51033;42.648;23.292;2023-07-20T01:21:05;93596.69;;;21.26;51.72
30935;BME280;51033;42.648;23.292;2023-07-20T01:32:26;93592.41;;;21.18;51.16
30935;BME280;51033;42.648;23.292;2023-07-20T01:34:53;93610.19;;;21.15;51.58
30935;BME280;51033;42.648;23.292;2023-07-20T01:37:20;93604.41;;;21.13;51.67
30935;BME280;51033;42.648;23.292;2023-07-20T01:39:51;93595.88;;;20.97;52.39
30935;BME280;51033;42.648;23.292;2023-07-20T01:42:21;93592.75;;;20.88;51.85
30935;BME280;51033;42.648;23.292;2023-07-20T01:44:46;93583.06;;;20.83;52.53
30935;BME280;51033;42.648;23.292;2023-07-20T01:47:12;93598.97;;;20.92;53.15
30935;BME280;51033;42.648;23.292;2023-07-20T01:49:37;93597.34;;;20.84;53.30
30935;BME280;51033;42.648;23.292;2023-07-20T01:52:03;93583.44;;;20.75;54.14
30935;BME280;51033;42.648;23.292;2023-07-20T01:54:28;93589.63;;;20.72;54.30
30935;BME280;51033;42.648;23.292;2023-07-20T01:56:53;93586.88;;;20.68;54.28
30935;BME280;51033;42.648;23.292;2023-07-20T01:59:19;93586.06;;;20.53;54.23
30935;BME280;51033;42.648;23.292;2023-07-20T02:01:44;93582.22;;;20.47;54.96
30935;BME280;51033;42.648;23.292;2023-07-20T02:04:10;93586.44;;;20.48;55.33
30935;BME280;51033;42.648;23.292;2023-07-20T02:06:35;93582.16;;;20.33;56.04
30935;BME280;51033;42.648;23.292;2023-07-20T02:09:00;93589.44;;;20.22;56.59
30935;BME280;51033;42.648;23.292;2023-07-20T02:11:26;93594.06;;;20.18;56.86
30935;BME280;51033;42.648;23.292;2023-07-20T02:13:51;93594.84;;;20.19;57.71
30935;BME280;51033;42.648;23.292;2023-07-20T02:16:17;93573.88;;;20.05;57.26
30935;BME280;51033;42.648;23.292;2023-07-20T02:18:42;93595.53;;;20.12;57.61
30935;BME280;51033;42.648;23.292;2023-07-20T02:21:07;93596.66;;;20.11;57.45
30935;BME280;51033;42.648;23.292;2023-07-20T02:23:33;93596.25;;;20.05;57.67
30935;BME280;51033;42.648;23.292;2023-07-20T02:25:58;93586.56;;;19.94;57.74
30935;BME280;51033;42.648;23.292;2023-07-20T02:28:23;93590.84;;;20.02;57.36
30935;BME280;51033;42.648;23.292;2023-07-20T02:30:49;93562.94;;;19.80;57.17
30935;BME280;51033;42.648;23.292;2023-07-20T02:33:15;93591.19;;;19.97;57.43
30935;BME280;51033;42.648;23.292;2023-07-20T02:35:40;93583.09;;;19.97;57.65
30935;BME280;51033;42.648;23.292;2023-07-20T02:38:06;93575.34;;;19.88;57.30
30935;BME280;51033;42.648;23.292;2023-07-20T02:40:32;93576.91;;;19.89;57.60
30935;BME280;51033;42.648;23.292;2023-07-20T02:45:23;93564.94;;;19.90;56.93
30935;BME280;51033;42.648;23.292;2023-07-20T02:47:48;93564.94;;;19.87;57.41
30935;BME280;51033;42.648;23.292;2023-07-20T02:50:14;93562.25;;;19.90;57.73
30935;BME280;51033;42.648;23.292;2023-07-20T02:52:40;93559.16;;;19.85;57.29
30935;BME280;51033;42.648;23.292;2023-07-20T02:55:06;93550.22;;;19.73;57.70
30935;BME280;51033;42.648;23.292;2023-07-20T02:57:32;93561.38;;;19.75;57.54
30935;BME280;51033;42.648;23.292;2023-07-20T02:59:57;93562.91;;;19.69;58.26
30935;BME280;51033;42.648;23.292;2023-07-20T03:02:23;93560.91;;;19.59;58.45
30935;BME280;51033;42.648;23.292;2023-07-20T03:04:48;93548.88;;;19.46;58.83
30935;BME280;51033;42.648;23.292;2023-07-20T03:07:13;93564.41;;;19.63;59.14
30935;BME280;51033;42.648;23.292;2023-07-20T03:09:39;93555.88;;;19.54;58.98
30935;BME280;51033;42.648;23.292;2023-07-20T03:12:05;93553.53;;;19.49;58.84
30935;BME280;51033;42.648;23.292;2023-07-20T03:14:30;93576.75;;;19.64;58.87
30935;BME280;51033;42.648;23.292;2023-07-20T03:16:56;93569.00;;;19.59;58.58
30935;BME280;51033;42.648;23.292;2023-07-20T03:19:21;93579.06;;;19.66;58.00
30935;BME280;51033;42.648;23.292;2023-07-20T03:21:46;93572.44;;;19.56;57.72
30935;BME280;51033;42.648;23.292;2023-07-20T03:24:12;93575.94;;;19.60;57.88
30935;BME280;51033;42.648;23.292;2023-07-20T03:26:37;93561.94;;;19.44;58.52
30935;BME280;51033;42.648;23.292;2023-07-20T03:29:04;93592.88;;;19.57;58.35
30935;BME280;51033;42.648;23.292;2023-07-20T03:31:30;93577.38;;;19.47;58.06
30935;BME280;51033;42.648;23.292;2023-07-20T03:33:55;93582.84;;;19.54;58.16
30935;BME280;51033;42.648;23.292;2023-07-20T03:36:21;93575.91;;;19.53;58.85
30935;BME280;51033;42.648;23.292;2023-07-20T03:38:47;93573.97;;;19.50;59.41
30935;BME280;51033;42.648;23.292;2023-07-20T03:41:12;93570.50;;;19.53;59.10
30935;BME280;51033;42.648;23.292;2023-07-20T03:43:38;93586.78;;;19.67;59.06
30935;BME280;51033;42.648;23.292;2023-07-20T03:46:03;93567.03;;;19.53;59.43
30935;BME280;51033;42.648;23.292;2023-07-20T03:48:32;93578.25;;;19.62;59.24
30935;BME280;51033;42.648;23.292;2023-07-20T03:50:58;93581.38;;;19.64;58.85
30935;BME280;51033;42.648;23.292;2023-07-20T03:53:23;93592.25;;;19.74;58.92
30935;BME280;51033;42.648;23.292;2023-07-20T03:55:49;93563.25;;;19.64;58.92
30935;BME280;51033;42.648;23.292;2023-07-20T03:58:16;93591.47;;;19.78;59.28
30935;BME280;51033;42.648;23.292;2023-07-20T04:00:45;93571.38;;;19.68;58.85
30935;BME280;51033;42.648;23.292;2023-07-20T04:03:11;93579.13;;;19.77;58.71
30935;BME280;51033;42.648;23.292;2023-07-20T04:05:36;93581.88;;;19.84;58.88
30935;BME280;51033;42.648;23.292;2023-07-20T04:08:02;93590.84;;;19.98;58.57
30935;BME280;51033;42.648;23.292;2023-07-20T04:10:27;93565.28;;;19.85;59.66
30935;BME280;51033;42.648;23.292;2023-07-20T04:12:52;93570.03;;;19.99;59.39
30935;BME280;51033;42.648;23.292;2023-07-20T04:15:18;93576.22;;;20.10;59.97
30935;BME280;51033;42.648;23.292;2023-07-20T04:17:45;93570.91;;;20.17;59.56
30935;BME280;51033;42.648;23.292;2023-07-20T04:20:10;93560.84;;;20.14;59.78
30935;BME280;51033;42.648;23.292;2023-07-20T04:22:36;93560.53;;;20.26;59.94
30935;BME280;51033;42.648;23.292;2023-07-20T04:25:02;93564.81;;;20.41;59.25
30935;BME280;51033;42.648;23.292;2023-07-20T04:27:28;93566.41;;;20.53;58.91
30935;BME280;51033;42.648;23.292;2023-07-20T04:29:53;93566.44;;;20.67;58.86
30935;BME280;51033;42.648;23.292;2023-07-20T04:32:18;93563.00;;;20.77;58.72
30935;BME280;51033;42.648;23.292;2023-07-20T04:34:44;93567.28;;;20.89;58.47
30935;BME280;51033;42.648;23.292;2023-07-20T04:37:09;93554.16;;;20.87;58.34
30935;BME280;51033;42.648;23.292;2023-07-20T04:39:34;93559.59;;;21.05;57.13
30935;BME280;51033;42.648;23.292;2023-07-20T04:42:00;93554.94;;;21.13;56.75
30935;BME280;51033;42.648;23.292;2023-07-20T04:44:25;93549.94;;;21.32;56.39
30935;BME280;51033;42.648;23.292;2023-07-20T04:46:51;93539.09;;;21.32;55.99
30935;BME280;51033;42.648;23.292;2023-07-20T04:49:16;93544.91;;;21.41;56.18
30935;BME280;51033;42.648;23.292;2023-07-20T04:51:42;93539.13;;;21.50;56.46
30935;BME280;51033;42.648;23.292;2023-07-20T04:54:07;93561.91;;;21.67;56.05
30935;BME280;51033;42.648;23.292;2023-07-20T04:56:33;93542.19;;;21.66;55.45
30935;BME280;51033;42.648;23.292;2023-07-20T04:58:58;93550.28;;;21.77;55.71
30935;BME280;51033;42.648;23.292;2023-07-20T05:01:24;93544.88;;;21.80;56.33
30935;BME280;51033;42.648;23.292;2023-07-20T05:03:49;93556.84;;;21.94;55.49
30935;BME280;51033;42.648;23.292;2023-07-20T05:06:15;93554.47;;;22.10;54.91
30935;BME280;51033;42.648;23.292;2023-07-20T05:08:41;93532.03;;;22.06;55.50
30935;BME280;51033;42.648;23.292;2023-07-20T05:11:06;93551.72;;;22.27;54.68
30935;BME280;51033;42.648;23.292;2023-07-20T05:13:32;93558.28;;;22.34;54.19
30935;BME280;51033;42.648;23.292;2023-07-20T05:15:58;93549.38;;;22.37;53.01
30935;BME280;51033;42.648;23.292;2023-07-20T05:18:23;93562.06;;;22.50;52.70
30935;BME280;51033;42.648;23.292;2023-07-20T05:20:50;93566.31;;;22.55;52.59
30935;BME280;51033;42.648;23.292;2023-07-20T05:23:18;93550.81;;;22.55;52.06
30935;BME280;51033;42.648;23.292;2023-07-20T05:25:53;93530.75;;;22.46;52.11
30935;BME280;51033;42.648;23.292;2023-07-20T05:28:18;93553.88;;;22.64;52.33
30935;BME280;51033;42.648;23.292;2023-07-20T05:30:44;93560.03;;;22.72;51.14
30935;BME280;51033;42.648;23.292;2023-07-20T05:33:09;93580.50;;;22.80;51.91
30935;BME280;51033;42.648;23.292;2023-07-20T05:35:36;93572.38;;;22.80;51.85
30935;BME280;51033;42.648;23.292;2023-07-20T05:38:01;93579.41;;;22.70;51.26
30935;BME280;51033;42.648;23.292;2023-07-20T05:40:27;93573.19;;;22.70;51.43
30935;BME280;51033;42.648;23.292;2023-07-20T05:42:52;93574.69;;;22.78;51.29
30935;BME280;51033;42.648;23.292;2023-07-20T05:45:19;93580.47;;;22.84;51.45
30935;BME280;51033;42.648;23.292;2023-07-20T05:47:46;93580.13;;;22.78;51.06
30935;BME280;51033;42.648;23.292;2023-07-20T05:50:11;93569.34;;;22.71;50.18
30935;BME280;51033;42.648;23.292;2023-07-20T05:52:37;93583.28;;;22.69;50.12
30935;BME280;51033;42.648;23.292;2023-07-20T05:55:04;93597.19;;;22.75;50.10
30935;BME280;51033;42.648;23.292;2023-07-20T05:57:30;93580.19;;;22.71;50.54
30935;BME280;51033;42.648;23.292;2023-07-20T05:59:55;93578.97;;;22.83;50.90
30935;BME280;51033;42.648;23.292;2023-07-20T06:02:21;93582.81;;;22.92;49.77
30935;BME280;51033;42.648;23.292;2023-07-20T06:04:47;93576.97;;;22.94;48.98
30935;BME280;51033;42.648;23.292;2023-07-20T06:07:12;93590.13;;;23.02;50.30
30935;BME280;51033;42.648;23.292;2023-07-20T06:09:38;93566.94;;;22.91;49.25
30935;BME280;51033;42.648;23.292;2023-07-20T06:12:03;93585.84;;;22.98;49.15
30935;BME280;51033;42.648;23.292;2023-07-20T06:14:29;93579.16;;;23.13;49.71
30935;BME280;51033;42.648;23.292;2023-07-20T06:16:54;93578.41;;;23.12;48.89
30935;BME280;51033;42.648;23.292;2023-07-20T06:19:20;93568.34;;;23.09;48.59
30935;BME280;51033;42.648;23.292;2023-07-20T06:21:47;93567.97;;;23.07;48.58
30935;BME280;51033;42.648;23.292;2023-07-20T06:24:13;93564.84;;;23.12;48.78
30935;BME280;51033;42.648;23.292;2023-07-20T06:26:38;93519.66;;;22.92;49.97
30935;BME280;51033;42.648;23.292;2023-07-20T06:29:08;93563.16;;;23.29;49.34
30935;BME280;51033;42.648;23.292;2023-07-20T06:31:34;93543.41;;;23.29;47.82
30935;BME280;51033;42.648;23.292;2023-07-20T06:34:00;93548.84;;;23.29;48.14
30935;BME280;51033;42.648;23.292;2023-07-20T06:36:26;93561.22;;;23.30;48.28
30935;BME280;51033;42.648;23.292;2023-07-20T06:38:52;93549.16;;;23.38;47.77
30935;BME280;51033;42.648;23.292;2023-07-20T06:41:17;93541.81;;;23.35;46.94
30935;BME280;51033;42.648;23.292;2023-07-20T06:43:43;93543.31;;;23.39;47.31
30935;BME280;51033;42.648;23.292;2023-07-20T06:46:08;93553.31;;;23.53;47.90
30935;BME280;51033;42.648;23.292;2023-07-20T06:48:34;93556.41;;;23.55;46.62
30935;BME280;51033;42.648;23.292;2023-07-20T06:50:59;93559.47;;;23.61;46.27
30935;BME280;51033;42.648;23.292;2023-07-20T06:53:25;93560.53;;;23.70;46.87
30935;BME280;51033;42.648;23.292;2023-07-20T06:55:50;93557.75;;;23.77;45.81
30935;BME280;51033;42.648;23.292;2023-07-20T06:58:15;93567.03;;;23.80;45.77
30935;BME280;51033;42.648;23.292;2023-07-20T07:00:41;93552.78;;;23.69;46.43
30935;BME280;51033;42.648;23.292;2023-07-20T07:03:07;93573.97;;;23.84;45.41
30935;BME280;51033;42.648;23.292;2023-07-20T07:05:38;93589.31;;;24.01;46.16
30935;BME280;51033;42.648;23.292;2023-07-20T07:08:07;93584.88;;;24.22;46.51
30935;BME280;51033;42.648;23.292;2023-07-20T07:10:34;93590.22;;;24.29;45.01
30935;BME280;51033;42.648;23.292;2023-07-20T07:13:00;93597.63;;;24.25;45.68
30935;BME280;51033;42.648;23.292;2023-07-20T07:15:25;93595.72;;;24.22;46.50
30935;BME280;51033;42.648;23.292;2023-07-20T07:17:51;93603.00;;;24.32;46.19
30935;BME280;51033;42.648;23.292;2023-07-20T07:20:17;93619.25;;;24.39;45.43
30935;BME280;51033;42.648;23.292;2023-07-20T07:22:42;93624.22;;;24.44;45.71
30935;BME280;51033;42.648;23.292;2023-07-20T07:25:09;93629.22;;;24.49;45.51
30935;BME280;51033;42.648;23.292;2023-07-20T07:27:35;93627.69;;;24.44;46.37
30935;BME280;51033;42.648;23.292;2023-07-20T07:30:00;93616.34;;;24.16;46.53
30935;BME280;51033;42.648;23.292;2023-07-20T07:32:26;93632.16;;;24.28;46.48
30935;BME280;51033;42.648;23.292;2023-07-20T07:34:51;93623.25;;;24.27;46.85
30935;BME280;51033;42.648;23.292;2023-07-20T07:37:17;93617.84;;;24.24;47.37
30935;BME280;51033;42.648;23.292;2023-07-20T07:39:44;93604.09;;;23.97;46.94
30935;BME280;51033;42.648;23.292;2023-07-20T07:42:11;93611.38;;;24.07;47.27
30935;BME280;51033;42.648;23.292;2023-07-20T07:44:36;93614.41;;;24.20;47.86
30935;BME280;51033;42.648;23.292;2023-07-20T07:47:02;93616.16;;;24.37;48.25
30935;BME280;51033;42.648;23.292;2023-07-20T07:49:27;93598.25;;;24.39;48.25
30935;BME280;51033;42.648;23.292;2023-07-20T07:51:53;93591.47;;;24.21;48.23
30935;BME280;51033;42.648;23.292;2023-07-20T07:54:18;93581.31;;;24.25;48.79
30935;BME280;51033;42.648;23.292;2023-07-20T07:56:43;93582.75;;;24.36;49.08
30935;BME280;51033;42.648;23.292;2023-07-20T07:59:09;93583.41;;;24.48;49.08
30935;BME280;51033;42.648;23.292;2023-07-20T08:01:35;93567.81;;;24.52;49.27
30935;BME280;51033;42.648;23.292;2023-07-20T08:04:00;93570.91;;;24.54;49.10
30935;BME280;51033;42.648;23.292;2023-07-20T08:06:26;93599.53;;;24.62;48.94
30935;BME280;51033;42.648;23.292;2023-07-20T08:08:51;93608.81;;;24.68;49.38
30935;BME280;51033;42.648;23.292;2023-07-20T08:11:16;93631.69;;;24.70;49.17
30935;BME280;51033;42.648;23.292;2023-07-20T08:13:43;93649.88;;;24.39;49.46
30935;BME280;51033;42.648;23.292;2023-07-20T08:16:08;93653.56;;;24.22;50.14
30935;BME280;51033;42.648;23.292;2023-07-20T08:18:34;93643.19;;;24.07;50.15
30935;BME280;51033;42.648;23.292;2023-07-20T08:20:59;93642.91;;;23.97;51.38
30935;BME280;51033;42.648;23.292;2023-07-20T08:23:24;93642.53;;;23.51;51.87
30935;BME280;51033;42.648;23.292;2023-07-20T08:25:50;93652.66;;;23.40;50.17
30935;BME280;51033;42.648;23.292;2023-07-20T08:28:16;93622.41;;;23.41;50.37
30935;BME280;51033;42.648;23.292;2023-07-20T08:30:42;93644.44;;;23.54;49.04
30935;BME280;51033;42.648;23.292;2023-07-20T08:33:09;93643.66;;;23.53;48.81
30935;BME280;51033;42.648;23.292;2023-07-20T08:35:35;93639.38;;;23.56;49.32
30935;BME280;51033;42.648;23.292;2023-07-20T08:38:00;93636.28;;;23.47;48.50
30935;BME280;51033;42.648;23.292;2023-07-20T08:40:26;93643.44;;;23.27;47.79
30935;BME280;51033;42.648;23.292;2023-07-20T08:42:54;93648.84;;;23.30;48.69
30935;BME280;51033;42.648;23.292;2023-07-20T08:45:22;93639.56;;;23.24;47.48
30935;BME280;51033;42.648;23.292;2023-07-20T08:47:48;93648.75;;;23.41;47.62
30935;BME280;51033;42.648;23.292;2023-07-20T08:50:16;93641.88;;;23.26;48.15
30935;BME280;51033;42.648;23.292;2023-07-20T08:52:41;93622.44;;;23.34;48.24
30935;BME280;51033;42.648;23.292;2023-07-20T08:55:07;93615.81;;;23.39;46.32
30935;BME280;51033;42.648;23.292;2023-07-20T08:57:33;93633.25;;;23.38;47.50
30935;BME280;51033;42.648;23.292;2023-07-20T09:00:02;93629.31;;;23.53;47.04
30935;BME280;51033;42.648;23.292;2023-07-20T09:02:34;93608.84;;;23.38;46.32
30935;BME280;51033;42.648;23.292;2023-07-20T09:05:00;93616.13;;;23.48;47.26
30935;BME280;51033;42.648;23.292;2023-07-20T09:07:26;93615.78;;;23.46;46.07
30935;BME280;51033;42.648;23.292;2023-07-20T09:09:51;93587.94;;;23.35;47.13
30935;BME280;51033;42.648;23.292;2023-07-20T09:12:17;93576.28;;;23.38;45.93
30935;BME280;51033;42.648;23.292;2023-07-20T09:14:43;93625.19;;;23.82;45.47
30935;BME280;51033;42.648;23.292;2023-07-20T09:17:12;93619.88;;;23.68;45.39
30935;BME280;51033;42.648;23.292;2023-07-20T09:19:39;93617.50;;;23.74;45.80
30935;BME280;51033;42.648;23.292;2023-07-20T09:22:05;93598.13;;;23.75;45.13
30935;BME280;51033;42.648;23.292;2023-07-20T09:24:31;93606.91;;;23.86;45.09
30935;BME280;51033;42.648;23.292;2023-07-20T09:27:01;93599.53;;;23.90;45.03
30935;BME280;51033;42.648;23.292;2023-07-20T09:29:29;93607.97;;;23.96;43.78
30935;BME280;51033;42.648;23.292;2023-07-20T09:32:04;93605.41;;;23.85;43.88
30935;BME280;51033;42.648;23.292;2023-07-20T09:34:31;93606.81;;;23.97;43.96
30935;BME280;51033;42.648;23.292;2023-07-20T09:36:58;93607.84;;;24.10;44.32
30935;BME280;51033;42.648;23.292;2023-07-20T09:39:23;93606.44;;;23.98;43.26
30935;BME280;51033;42.648;23.292;2023-07-20T09:41:49;93603.81;;;23.88;42.98
30935;BME280;51033;42.648;23.292;2023-07-20T09:44:15;93602.97;;;23.94;43.89
30935;BME280;51033;42.648;23.292;2023-07-20T09:46:42;93602.19;;;23.94;43.60
30935;BME280;51033;42.648;23.292;2023-07-20T09:49:11;93595.56;;;23.98;43.69
30935;BME280;51033;42.648;23.292;2023-07-20T09:51:37;93593.09;;;24.15;44.12
30935;BME280;51033;42.648;23.292;2023-07-20T09:54:03;93593.72;;;24.29;41.82
30935;BME280;51033;42.648;23.292;2023-07-20T09:56:30;93572.72;;;24.33;43.04
30935;BME280;51033;42.648;23.292;2023-07-20T09:58:56;93546.66;;;24.36;42.42
30935;BME280;51033;42.648;23.292;2023-07-20T10:01:23;93557.91;;;24.38;41.82
30935;BME280;51033;42.648;23.292;2023-07-20T10:03:53;93561.41;;;24.35;42.61
30935;BME280;51033;42.648;23.292;2023-07-20T10:06:23;93568.00;;;24.37;41.95
30935;BME280;51033;42.648;23.292;2023-07-20T10:08:52;93557.19;;;24.34;40.90
30935;BME280;51033;42.648;23.292;2023-07-20T10:11:18;93563.06;;;24.29;40.74
30935;BME280;51033;42.648;23.292;2023-07-20T10:13:50;93566.50;;;24.33;41.27
30935;BME280;51033;42.648;23.292;2023-07-20T10:16:34;93569.03;;;24.47;40.90
30935;BME280;51033;42.648;23.292;2023-07-20T10:19:13;93575.69;;;24.42;41.43
30935;BME280;51033;42.648;23.292;2023-07-20T10:21:47;93570.31;;;24.39;40.47
30935;BME280;51033;42.648;23.292;2023-07-20T10:24:13;93587.38;;;24.39;41.73
30935;BME280;51033;42.648;23.292;2023-07-20T10:26:39;93583.41;;;24.48;41.72
30935;BME280;51033;42.648;23.292;2023-07-20T10:29:04;93574.38;;;24.54;41.08
30935;BME280;51033;42.648;23.292;2023-07-20T10:31:31;93571.63;;;24.58;41.65
30935;BME280;51033;42.648;23.292;2023-07-20T10:33:57;93552.28;;;24.52;41.45
30935;BME280;51033;42.648;23.292;2023-07-20T10:36:27;93535.84;;;24.63;41.80
30935;BME280;51033;42.648;23.292;2023-07-20T10:38:54;93551.53;;;24.82;41.81
30935;BME280;51033;42.648;23.292;2023-07-20T10:41:21;93555.75;;;24.87;42.91
30935;BME280;51033;42.648;23.292;2023-07-20T10:43:48;93545.91;;;24.96;42.16
30935;BME280;51033;42.648;23.292;2023-07-20T10:46:14;93520.19;;;25.01;42.73
30935;BME280;51033;42.648;23.292;2023-07-20T10:49:13;93472.94;;;25.14;41.17
30935;BME280;51033;42.648;23.292;2023-07-20T10:51:52;93480.56;;;25.23;41.75
30935;BME280;51033;42.648;23.292;2023-07-20T10:56:50;93483.16;;;25.30;42.97
30935;BME280;51033;42.648;23.292;2023-07-20T11:01:54;93485.78;;;25.60;43.18
30935;BME280;51033;42.648;23.292;2023-07-20T11:04:37;93483.78;;;25.64;41.90
30935;BME280;51033;42.648;23.292;2023-07-20T11:07:03;93466.16;;;25.49;41.46
30935;BME280;51033;42.648;23.292;2023-07-20T11:09:34;93471.47;;;25.56;41.47
30935;BME280;51033;42.648;23.292;2023-07-20T11:12:17;93481.25;;;25.74;41.40
30935;BME280;51033;42.648;23.292;2023-07-20T11:14:53;93473.94;;;25.70;41.95
30935;BME280;51033;42.648;23.292;2023-07-20T11:17:20;93489.41;;;25.97;40.98
30935;BME280;51033;42.648;23.292;2023-07-20T11:19:56;93479.09;;;26.08;40.93
30935;BME280;51033;42.648;23.292;2023-07-20T11:22:22;93482.66;;;26.05;41.51
30935;BME280;51033;42.648;23.292;2023-07-20T11:24:47;93458.66;;;26.16;40.84
30935;BME280;51033;42.648;23.292;2023-07-20T11:27:15;93460.91;;;26.21;40.02
30935;BME280;51033;42.648;23.292;2023-07-20T11:29:41;93469.22;;;26.34;39.88
30935;BME280;51033;42.648;23.292;2023-07-20T11:32:07;93466.97;;;26.48;40.05
30935;BME280;51033;42.648;23.292;2023-07-20T11:34:33;93452.22;;;26.46;38.23
30935;BME280;51033;42.648;23.292;2023-07-20T11:36:59;93459.81;;;26.54;39.64
30935;BME280;51033;42.648;23.292;2023-07-20T11:39:25;93459.16;;;26.67;39.72
30935;BME280;51033;42.648;23.292;2023-07-20T11:41:57;93458.56;;;26.59;39.14
30935;BME280;51033;42.648;23.292;2023-07-20T11:44:24;93446.91;;;26.59;39.27
30935;BME280;51033;42.648;23.292;2023-07-20T11:47:20;93450.22;;;26.66;38.53
30935;BME280;51033;42.648;23.292;2023-07-20T11:49:45;93450.34;;;26.79;39.42
30935;BME280;51033;42.648;23.292;2023-07-20T11:52:16;93442.47;;;26.81;39.72
30935;BME280;51033;42.648;23.292;2023-07-20T11:54:43;93446.84;;;26.94;39.12
30935;BME280;51033;42.648;23.292;2023-07-20T11:57:21;93429.88;;;26.87;37.67
30935;BME280;51033;42.648;23.292;2023-07-20T11:59:56;93439.41;;;26.95;36.64
30935;BME280;51033;42.648;23.292;2023-07-20T12:02:29;93438.53;;;27.18;36.62
30935;BME280;51033;42.648;23.292;2023-07-20T12:04:56;93435.19;;;27.26;36.52
30935;BME280;51033;42.648;23.292;2023-07-20T12:07:22;93431.06;;;27.34;36.40
30935;BME280;51033;42.648;23.292;2023-07-20T12:10:07;93429.19;;;27.31;36.22
30935;BME280;51033;42.648;23.292;2023-07-20T12:12:42;93417.75;;;27.36;36.15
30935;BME280;51033;42.648;23.292;2023-07-20T12:15:24;93421.47;;;27.42;35.59
30935;BME280;51033;42.648;23.292;2023-07-20T12:17:52;93430.16;;;27.70;33.91
30935;BME280;51033;42.648;23.292;2023-07-20T12:20:30;93418.44;;;27.57;33.88
30935;BME280;51033;42.648;23.292;2023-07-20T12:22:59;93416.44;;;27.57;33.06
30935;BME280;51033;42.648;23.292;2023-07-20T12:25:33;93423.94;;;27.69;33.33
30935;BME280;51033;42.648;23.292;2023-07-20T12:28:00;93431.19;;;27.76;33.17
30935;BME280;51033;42.648;23.292;2023-07-20T12:30:27;93418.38;;;27.73;32.92
30935;BME280;51033;42.648;23.292;2023-07-20T12:32:53;93416.66;;;27.79;33.61
30935;BME280;51033;42.648;23.292;2023-07-20T12:35:18;93410.31;;;27.82;31.94
30935;BME280;51033;42.648;23.292;2023-07-20T12:37:44;93417.91;;;27.91;32.96
30935;BME280;51033;42.648;23.292;2023-07-20T12:40:14;93418.75;;;27.88;31.99
30935;BME280;51033;42.648;23.292;2023-07-20T12:42:39;93413.88;;;27.95;31.68
30935;BME280;51033;42.648;23.292;2023-07-20T12:45:05;93408.94;;;28.03;32.56
30935;BME280;51033;42.648;23.292;2023-07-20T12:47:31;93419.28;;;28.11;32.95
30935;BME280;51033;42.648;23.292;2023-07-20T12:49:56;93415.47;;;28.21;30.84
30935;BME280;51033;42.648;23.292;2023-07-20T12:52:22;93401.25;;;28.14;31.19
30935;BME280;51033;42.648;23.292;2023-07-20T12:54:47;93415.38;;;28.25;30.32
30935;BME280;51033;42.648;23.292;2023-07-20T12:57:13;93390.78;;;28.25;30.40
30935;BME280;51033;42.648;23.292;2023-07-20T12:59:38;93396.78;;;28.33;30.30
30935;BME280;51033;42.648;23.292;2023-07-20T13:02:04;93405.44;;;28.44;31.05
30935;BME280;51033;42.648;23.292;2023-07-20T13:04:29;93403.78;;;28.46;30.53
30935;BME280;51033;42.648;23.292;2023-07-20T13:06:55;93395.03;;;28.39;30.24
30935;BME280;51033;42.648;23.292;2023-07-20T13:09:20;93388.03;;;28.38;30.97